Time;durP1;ratioP1;P1;durP2;ratioP2;P2;SDS_P1;SDS_P2;PMS_P1;PMS_P2;Temp;Humidity;BMP_temperature;BMP_pressure;BME280_temperature;BME280_humidity;BME280_pressure;Samples;Min_cycle;Max_cycle;Signal;HPM_P1;HPM_P2
2023/03/15 00:02:04;;;;;;;26.58;13.57;;;;;;;10.31;100.00;99325.47;6246798;23;20103;-85
2023/03/15 00:04:33;;;;;;;26.00;13.93;;;;;;;10.18;100.00;99331.47;6246344;23;20072;-85
2023/03/15 00:06:59;;;;;;;23.63;13.50;;;;;;;10.15;100.00;99339.78;6246459;23;20042;-89
2023/03/15 00:09:24;;;;;;;20.80;13.52;;;;;;;10.19;100.00;99341.03;6246253;23;20058;-83
2023/03/15 00:11:53;;;;;;;21.77;12.75;;;;;;;10.21;100.00;99336.38;6246545;23;20038;-83
2023/03/15 00:14:19;;;;;;;19.83;12.45;;;;;;;9.78;100.00;99348.69;6246524;23;20051;-84
2023/03/15 00:16:45;;;;;;;19.27;11.93;;;;;;;9.74;100.00;99355.34;6245098;23;20091;-85
2023/03/15 00:19:11;;;;;;;19.58;12.20;;;;;;;10.01;100.00;99366.28;6245128;23;20031;-85
2023/03/15 00:21:36;;;;;;;23.02;12.68;;;;;;;9.77;100.00;99365.59;6245670;23;20015;-85
2023/03/15 00:24:02;;;;;;;22.20;12.85;;;;;;;9.81;100.00;99366.03;6245503;23;20040;-84
2023/03/15 00:26:28;;;;;;;20.67;13.45;;;;;;;9.62;100.00;99359.50;6245334;23;20331;-84
2023/03/15 00:28:53;;;;;;;21.95;13.45;;;;;;;9.98;100.00;99363.97;6245290;23;20018;-85
2023/03/15 00:31:24;;;;;;;17.50;11.70;;;;;;;9.75;100.00;99377.34;6245644;23;20004;-86
2023/03/15 00:33:52;;;;;;;17.27;10.98;;;;;;;9.37;100.00;99371.38;6245935;23;20028;-84
2023/03/15 00:36:23;;;;;;;18.75;11.65;;;;;;;9.27;100.00;99384.03;6218874;23;20186;-84
2023/03/15 00:38:52;;;;;;;17.35;10.73;;;;;;;9.44;100.00;99388.16;6245884;23;20011;-86
2023/03/15 00:41:19;;;;;;;18.38;10.85;;;;;;;9.56;100.00;99389.31;6219278;23;20374;-85
2023/03/15 00:43:46;;;;;;;28.95;11.18;;;;;;;9.63;100.00;99384.94;6218859;23;20285;-84
2023/03/15 00:46:12;;;;;;;14.07;10.07;;;;;;;9.69;100.00;99384.22;6219375;23;20111;-86
2023/03/15 00:48:40;;;;;;;15.88;10.07;;;;;;;9.69;100.00;99384.22;6247034;23;20016;-85
2023/03/15 00:51:07;;;;;;;18.17;9.70;;;;;;;9.71;100.00;99389.34;6253034;23;20095;-87
2023/03/15 00:53:34;;;;;;;16.00;9.43;;;;;;;9.49;100.00;99388.41;6246931;23;20038;-85
2023/03/15 00:56:22;;;;;;;16.05;9.45;;;;;;;9.47;100.00;99394.91;6246079;23;20083;-85
2023/03/15 00:58:49;;;;;;;16.40;8.95;;;;;;;9.36;100.00;99393.50;6246101;23;20012;-85
2023/03/15 01:01:20;;;;;;;14.73;8.20;;;;;;;9.20;100.00;99394.50;6219675;23;20000;-85
2023/03/15 01:03:46;;;;;;;13.73;8.15;;;;;;;9.13;100.00;99398.06;6218952;23;20023;-85
2023/03/15 01:06:17;;;;;;;12.95;7.93;;;;;;;9.20;100.00;99404.25;6219628;23;20012;-87
2023/03/15 01:08:43;;;;;;;8.77;5.90;;;;;;;9.15;100.00;99403.97;6194228;23;20004;-82
2023/03/15 01:11:12;;;;;;;7.18;4.28;;;;;;;8.90;100.00;99413.13;6247719;23;20020;-83
2023/03/15 01:13:37;;;;;;;5.30;3.33;;;;;;;8.94;100.00;99409.13;6221511;23;20012;-83
2023/03/15 01:16:03;;;;;;;5.63;3.70;;;;;;;8.97;100.00;99416.69;6218649;23;20403;-82
2023/03/15 01:18:29;;;;;;;5.40;3.20;;;;;;;9.08;100.00;99413.66;6218335;23;20011;-83
2023/03/15 01:20:57;;;;;;;5.85;2.60;;;;;;;9.08;100.00;99416.28;6217725;23;20008;-84
2023/03/15 01:23:23;;;;;;;4.00;2.30;;;;;;;9.18;100.00;99419.50;6218812;23;20035;-82
2023/03/15 01:25:48;;;;;;;3.00;1.73;;;;;;;9.25;100.00;99418.56;6218503;23;20012;-83
2023/03/15 01:28:14;;;;;;;4.68;1.60;;;;;;;9.21;100.00;99416.50;6217852;23;20316;-83
2023/03/15 01:30:40;;;;;;;3.33;1.25;;;;;;;9.20;100.00;99430.69;6217745;23;20000;-84
2023/03/15 01:33:05;;;;;;;3.28;1.60;;;;;;;9.20;100.00;99430.69;6246360;23;20092;-83
2023/03/15 01:35:31;;;;;;;3.03;1.30;;;;;;;9.25;100.00;99428.31;6222234;23;20103;-84
2023/03/15 01:37:56;;;;;;;2.35;1.45;;;;;;;9.24;100.00;99432.81;6221420;23;20012;-83
2023/03/15 01:40:22;;;;;;;1.90;1.30;;;;;;;9.26;100.00;99420.22;6195479;23;20012;-83
2023/03/15 01:43:03;;;;;;;2.40;1.35;;;;;;;9.42;100.00;99429.81;6247772;23;20446;-81
2023/03/15 01:45:52;;;;;;;1.42;1.00;;;;;;;9.62;100.00;99430.09;6246761;23;20027;-82
2023/03/15 01:48:21;;;;;;;1.10;0.88;;;;;;;9.67;100.00;99433.84;6218317;23;20031;-82
2023/03/15 01:50:48;;;;;;;2.63;1.00;;;;;;;9.74;100.00;99424.16;6218341;23;20067;-84
2023/03/15 01:53:15;;;;;;;1.17;0.95;;;;;;;9.83;100.00;99425.72;6220638;23;20008;-84
2023/03/15 01:55:41;;;;;;;3.00;1.17;;;;;;;9.91;100.00;99426.63;6222802;23;20004;-84
2023/03/15 01:58:10;;;;;;;1.33;1.00;;;;;;;9.96;99.77;99432.16;6223859;23;20004;-82
2023/03/15 02:00:40;;;;;;;1.42;1.00;;;;;;;10.02;97.60;99420.84;6226313;23;20022;-85
2023/03/15 02:03:14;;;;;;;1.23;0.88;;;;;;;10.10;96.77;99429.50;6224950;23;20052;-84
2023/03/15 02:05:56;;;;;;;2.03;0.80;;;;;;;10.09;95.22;99427.03;6225856;23;20013;-86
2023/03/15 02:08:56;;;;;;;1.90;1.42;;;;;;;10.15;92.70;99432.44;6248041;23;20091;-88
2023/03/15 02:11:25;;;;;;;2.97;0.80;;;;;;;10.18;86.36;99426.78;6220330;23;20016;-83
2023/03/15 02:13:52;;;;;;;2.13;0.90;;;;;;;10.20;84.77;99429.25;6219523;23;20008;-84
2023/03/15 02:16:20;;;;;;;1.83;0.88;;;;;;;10.18;85.85;99421.47;6219535;23;20020;-84
2023/03/15 02:18:52;;;;;;;1.42;1.08;;;;;;;10.11;85.55;99414.47;6220356;23;20023;-85
2023/03/15 02:21:32;;;;;;;2.88;1.27;;;;;;;10.12;84.69;99427.50;6220220;23;20406;-84
2023/03/15 02:24:26;;;;;;;3.55;0.90;;;;;;;10.14;85.29;99430.00;6246387;23;20011;-84
2023/03/15 02:26:56;;;;;;;1.70;1.17;;;;;;;10.12;84.57;99432.78;6203518;23;20478;-84
2023/03/15 02:29:26;;;;;;;1.20;1.00;;;;;;;10.22;81.78;99433.34;6218883;23;20015;-84
2023/03/15 02:31:52;;;;;;;1.25;0.90;;;;;;;10.23;80.29;99426.22;6196680;23;20028;-84
2023/03/15 02:34:17;;;;;;;2.25;1.40;;;;;;;10.28;79.58;99437.06;6245976;23;20507;-85
2023/03/15 02:36:44;;;;;;;3.22;1.20;;;;;;;10.29;79.57;99436.88;6245917;23;20012;-85
2023/03/15 02:39:17;;;;;;;1.63;1.05;;;;;;;10.31;79.52;99432.22;6245555;23;20122;-85
2023/03/15 02:41:48;;;;;;;4.90;1.30;;;;;;;10.35;76.88;99440.59;6218777;23;20012;-85
2023/03/15 02:44:20;;;;;;;2.80;1.15;;;;;;;10.33;76.29;99443.47;6245668;23;20017;-85
2023/03/15 02:46:49;;;;;;;1.40;1.10;;;;;;;10.28;74.95;99447.66;6218525;23;20012;-85
2023/03/15 02:49:25;;;;;;;1.83;0.95;;;;;;;10.24;72.03;99451.72;6218466;23;20007;-84
2023/03/15 02:51:50;;;;;;;0.70;0.70;;;;;;;10.27;69.52;99448.69;6218666;23;20012;-84
2023/03/15 02:54:16;;;;;;;0.82;0.57;;;;;;;10.28;67.63;99452.94;6245350;23;20000;-85
2023/03/15 02:56:41;;;;;;;1.02;0.80;;;;;;;10.30;65.74;99456.25;6245118;23;20019;-84
2023/03/15 02:59:07;;;;;;;2.05;0.60;;;;;;;10.26;64.48;99454.97;6218240;23;20036;-85
2023/03/15 03:01:35;;;;;;;1.23;0.60;;;;;;;10.32;64.16;99464.81;6219318;23;20055;-85
2023/03/15 03:04:02;;;;;;;1.42;0.50;;;;;;;10.37;63.66;99455.31;6220824;23;20012;-88
2023/03/15 03:06:27;;;;;;;2.88;0.60;;;;;;;10.28;64.89;99456.44;6220363;23;19996;-86
2023/03/15 03:08:53;;;;;;;0.68;0.50;;;;;;;10.37;64.01;99454.50;6223204;23;20359;-86
2023/03/15 03:11:19;;;;;;;2.30;0.68;;;;;;;10.43;63.33;99466.16;6223775;23;20019;-84
2023/03/15 03:13:45;;;;;;;1.00;0.60;;;;;;;10.34;61.97;99468.13;6249197;23;20020;-84
2023/03/15 03:16:11;;;;;;;1.48;0.65;;;;;;;10.32;61.77;99460.34;6247595;23;20019;-83
2023/03/15 03:18:38;;;;;;;1.15;0.70;;;;;;;10.22;60.74;99469.59;6220375;23;20012;-85
2023/03/15 03:21:06;;;;;;;0.52;0.40;;;;;;;10.18;54.40;99470.97;6247240;23;20383;-83
2023/03/15 03:23:33;;;;;;;1.27;0.63;;;;;;;10.23;52.92;99465.94;6220264;23;20039;-82
2023/03/15 03:26:00;;;;;;;0.55;0.52;;;;;;;10.29;52.05;99467.84;6246991;23;20025;-85
2023/03/15 03:28:28;;;;;;;0.43;0.43;;;;;;;10.23;50.60;99471.25;6246989;23;20301;-84
2023/03/15 03:30:54;;;;;;;1.10;0.73;;;;;;;10.18;50.83;99463.84;6220375;23;20440;-85
2023/03/15 03:33:21;;;;;;;4.65;0.70;;;;;;;10.14;49.77;99467.06;6220249;23;20016;-86
2023/03/15 03:35:48;;;;;;;5.70;0.65;;;;;;;10.12;48.80;99469.03;6246862;23;20012;-84
2023/03/15 03:38:14;;;;;;;0.75;0.63;;;;;;;10.18;47.42;99468.31;6247275;23;20039;-85
2023/03/15 03:40:44;;;;;;;1.05;0.57;;;;;;;10.17;46.74;99479.94;6221021;23;20439;-84
2023/03/15 03:43:10;;;;;;;1.15;0.50;;;;;;;10.23;46.17;99484.47;6246753;23;20018;-84
2023/03/15 03:45:35;;;;;;;1.38;0.50;;;;;;;10.23;45.29;99479.19;6220069;23;20463;-84
2023/03/15 03:48:01;;;;;;;0.40;0.40;;;;;;;10.19;44.89;99488.50;6220567;23;20033;-84
2023/03/15 03:50:27;;;;;;;0.50;0.40;;;;;;;10.18;45.51;99494.78;6220409;23;20016;-85
2023/03/15 03:52:53;;;;;;;0.68;0.50;;;;;;;10.18;43.80;99492.97;6220046;23;20077;-84
2023/03/15 03:55:23;;;;;;;1.70;0.70;;;;;;;10.23;43.25;99497.72;6195731;23;20103;-84
2023/03/15 03:57:50;;;;;;;0.77;0.50;;;;;;;10.22;43.13;99496.91;6220467;23;20096;-84
2023/03/15 04:00:28;;;;;;;0.90;0.60;;;;;;;10.18;42.49;99495.59;6219637;23;20012;-84
2023/03/15 04:02:54;;;;;;;3.25;0.50;;;;;;;10.20;42.04;99493.63;6219737;23;21098;-85
2023/03/15 04:05:20;;;;;;;0.70;0.50;;;;;;;10.19;41.69;99496.44;6219536;23;20008;-86
2023/03/15 04:07:45;;;;;;;2.25;0.60;;;;;;;10.23;41.02;99490.59;6219799;23;20012;-85
2023/03/15 04:10:15;;;;;;;6.82;0.63;;;;;;;10.27;40.43;99485.75;6219376;23;20011;-85
2023/03/15 04:12:44;;;;;;;0.50;0.50;;;;;;;10.29;39.78;99492.50;6219374;23;20008;-84
2023/03/15 04:15:11;;;;;;;1.48;0.85;;;;;;;10.29;41.06;99491.69;6219427;23;20392;-84
2023/03/15 04:17:38;;;;;;;3.65;0.50;;;;;;;10.26;40.33;99486.75;6220075;23;20012;-84
2023/03/15 04:20:10;;;;;;;1.75;0.50;;;;;;;10.24;40.58;99486.13;6246487;23;20492;-86
2023/03/15 04:22:38;;;;;;;0.60;0.60;;;;;;;10.20;40.47;99492.78;6219503;23;20009;-85
2023/03/15 04:25:25;;;;;;;0.98;0.52;;;;;;;10.16;40.24;99499.47;6246981;23;20028;-86
2023/03/15 04:28:11;;;;;;;0.80;0.52;;;;;;;10.12;40.16;99490.19;6230360;23;20115;-86
2023/03/15 04:30:50;;;;;;;0.40;0.40;;;;;;;10.04;41.15;99501.69;6220101;23;20015;-84
2023/03/15 04:33:31;;;;;;;1.30;0.55;;;;;;;9.98;41.20;99509.56;6219399;23;20023;-84
2023/03/15 04:36:17;;;;;;;1.45;0.60;;;;;;;9.95;41.49;99504.63;6246379;23;20031;-85
2023/03/15 04:39:18;;;;;;;0.73;0.50;;;;;;;9.95;40.60;99504.63;6106964;23;20025;-83
2023/03/15 04:42:04;;;;;;;1.17;0.60;;;;;;;9.92;41.06;99505.00;6216838;23;20019;-85
2023/03/15 04:45:03;;;;;;;0.60;0.60;;;;;;;9.94;40.89;99503.00;6219681;23;20343;-85
2023/03/15 04:47:58;;;;;;;0.88;0.50;;;;;;;9.99;40.19;99511.19;6219932;23;20440;-84
2023/03/15 04:50:34;;;;;;;1.95;0.60;;;;;;;10.06;39.86;99517.41;6219233;23;20016;-84
2023/03/15 04:53:20;;;;;;;0.57;0.50;;;;;;;10.02;39.83;99511.66;6246230;23;20091;-86
2023/03/15 04:56:07;;;;;;;0.85;0.60;;;;;;;10.04;39.22;99514.94;6245323;23;20023;-84
2023/03/15 04:58:50;;;;;;;0.70;0.55;;;;;;;10.06;38.76;99522.72;6246144;23;20667;-84
2023/03/15 05:01:48;;;;;;;1.17;0.47;;;;;;;10.06;38.45;99526.19;6236566;23;20098;-83
2023/03/15 05:04:29;;;;;;;1.15;0.50;;;;;;;10.04;38.86;99528.16;6224762;23;20009;-83
2023/03/15 05:07:34;;;;;;;1.08;0.57;;;;;;;10.03;38.52;99538.97;6126185;23;20050;-85
2023/03/15 05:10:30;;;;;;;0.77;0.65;;;;;;;10.03;38.58;99536.31;6098169;23;20018;-82
2023/03/15 05:13:17;;;;;;;2.50;0.70;;;;;;;9.99;39.27;99542.97;6065561;23;20029;-85
2023/03/15 05:16:04;;;;;;;3.75;0.63;;;;;;;9.96;38.60;99551.28;6124163;23;20092;-85
2023/03/15 05:18:52;;;;;;;2.08;0.40;;;;;;;9.96;38.69;99553.91;6123385;23;20022;-86
2023/03/15 05:21:41;;;;;;;1.60;0.50;;;;;;;9.92;38.94;99568.50;6100988;23;20126;-84
2023/03/15 05:24:33;;;;;;;1.95;0.75;;;;;;;9.90;39.05;99559.94;6101321;23;20072;-85
2023/03/15 05:27:15;;;;;;;1.10;0.52;;;;;;;9.87;39.43;99571.72;6100991;23;20014;-84
2023/03/15 05:30:12;;;;;;;0.63;0.55;;;;;;;9.84;40.29;99570.22;6023395;23;20025;-84
2023/03/15 05:32:57;;;;;;;1.73;0.50;;;;;;;9.81;39.15;99578.53;6127948;23;20449;-86
2023/03/15 05:35:38;;;;;;;7.88;0.77;;;;;;;9.82;39.67;99576.72;6098627;23;20018;-82
2023/03/15 05:38:25;;;;;;;0.77;0.50;;;;;;;9.77;39.95;99571.97;6187699;23;20513;-85
2023/03/15 05:41:02;;;;;;;2.88;0.52;;;;;;;9.79;40.18;99574.44;6247969;23;20016;-82
2023/03/15 05:43:51;;;;;;;1.15;0.60;;;;;;;9.78;39.85;99584.19;6189255;23;20086;-85
2023/03/15 05:46:42;;;;;;;1.48;0.68;;;;;;;9.79;39.92;99601.72;6246768;23;20019;-85
2023/03/15 05:49:34;;;;;;;1.52;0.52;;;;;;;10.06;39.84;99599.47;6242669;23;20455;-83
2023/03/15 05:52:07;;;;;;;0.90;0.50;;;;;;;10.37;39.64;99600.97;6220129;23;20361;-84
2023/03/15 05:54:51;;;;;;;1.00;0.70;;;;;;;10.75;39.12;99603.50;6219097;23;20011;-83
2023/03/15 05:57:23;;;;;;;4.07;0.60;;;;;;;11.03;37.71;99612.41;6247509;23;20023;-87
2023/03/15 06:00:18;;;;;;;0.80;0.55;;;;;;;11.26;37.46;99618.38;6217310;23;20079;-84
2023/03/15 06:02:56;;;;;;;3.35;0.45;;;;;;;11.41;36.99;99628.91;6219493;23;20435;-81
2023/03/15 06:05:44;;;;;;;1.30;0.60;;;;;;;11.55;36.97;99633.34;6246766;23;20039;-83
2023/03/15 06:08:15;;;;;;;0.90;0.70;;;;;;;11.61;36.79;99637.88;6245348;23;20040;-84
2023/03/15 06:10:44;;;;;;;0.65;0.60;;;;;;;11.85;36.50;99645.50;6218497;23;20317;-85
2023/03/15 06:13:10;;;;;;;2.83;0.60;;;;;;;11.89;36.10;99649.41;6218447;23;20099;-83
2023/03/15 06:15:36;;;;;;;2.25;0.57;;;;;;;12.09;35.76;99656.72;6218478;23;20076;-84
2023/03/15 06:18:02;;;;;;;0.57;0.50;;;;;;;12.07;36.15;99664.03;6218649;23;20389;-82
2023/03/15 06:20:28;;;;;;;0.90;0.63;;;;;;;12.38;35.08;99673.28;6219171;23;20015;-86
2023/03/15 06:22:55;;;;;;;1.65;0.60;;;;;;;12.39;35.40;99674.91;6219229;23;20012;-85
2023/03/15 06:25:29;;;;;;;4.55;0.60;;;;;;;12.60;35.22;99687.31;6218491;23;20023;-88
2023/03/15 06:27:55;;;;;;;1.02;0.60;;;;;;;13.26;34.62;99682.31;6218635;23;20011;-88
2023/03/15 06:30:21;;;;;;;1.25;0.60;;;;;;;12.51;35.35;99693.78;6221975;23;20023;-85
2023/03/15 06:32:50;;;;;;;1.83;0.85;;;;;;;12.90;35.25;99702.00;6218799;23;20380;-85
2023/03/15 06:35:15;;;;;;;0.70;0.70;;;;;;;13.26;35.41;99706.28;6193780;23;20099;-86
2023/03/15 06:37:41;;;;;;;2.67;0.60;;;;;;;13.54;34.83;99709.66;6246281;23;20005;-87
2023/03/15 06:40:09;;;;;;;0.90;0.60;;;;;;;14.07;37.89;99707.06;6246595;23;20008;-87
2023/03/15 06:42:35;;;;;;;2.05;0.60;;;;;;;13.91;34.29;99713.63;6222526;23;20389;-87
2023/03/15 06:45:02;;;;;;;5.88;0.60;;;;;;;13.42;34.78;99713.94;6219686;23;20013;-86
2023/03/15 06:47:31;;;;;;;0.85;0.47;;;;;;;13.83;33.83;99721.78;6220829;23;20043;-86
2023/03/15 06:49:57;;;;;;;1.48;0.47;;;;;;;13.89;33.52;99716.47;6221408;23;20062;-86
2023/03/15 06:52:44;;;;;;;3.65;0.80;;;;;;;13.73;34.40;99732.84;6250287;23;20446;-88
2023/03/15 06:55:16;;;;;;;1.05;0.60;;;;;;;13.53;34.64;99737.28;6247071;23;20087;-89
2023/03/15 06:57:43;;;;;;;2.30;0.70;;;;;;;13.60;34.78;99740.78;6220542;23;20527;-88
2023/03/15 07:00:11;;;;;;;1.05;0.50;;;;;;;13.57;35.19;99751.84;6247577;23;20447;-90
2023/03/15 07:02:38;;;;;;;1.52;0.63;;;;;;;13.59;35.65;99749.00;6220587;23;20012;-89
2023/03/15 07:05:05;;;;;;;3.28;0.60;;;;;;;14.20;35.44;99760.38;6220961;23;20004;-90
2023/03/15 07:07:34;;;;;;;2.15;0.70;;;;;;;15.24;33.81;99763.97;6221757;23;20013;-87
2023/03/15 07:10:01;;;;;;;1.48;0.68;;;;;;;14.98;33.76;99773.69;6248411;23;20012;-86
2023/03/15 07:12:28;;;;;;;2.55;0.60;;;;;;;14.44;34.27;99770.47;6247630;23;20395;-88
2023/03/15 07:14:55;;;;;;;3.13;0.50;;;;;;;14.55;34.17;99769.03;6220032;23;20016;-87
2023/03/15 07:17:21;;;;;;;1.33;0.50;;;;;;;14.84;34.92;99774.75;6246051;23;20004;-86
2023/03/15 07:19:47;;;;;;;3.47;0.60;;;;;;;14.78;34.81;99774.75;6246424;23;20014;-87
2023/03/15 07:22:14;;;;;;;1.15;0.52;;;;;;;14.99;34.79;99783.34;6246703;23;20012;-85
2023/03/15 07:24:41;;;;;;;8.00;0.47;;;;;;;14.70;35.25;99789.13;6220362;23;20008;-88
2023/03/15 07:27:12;;;;;;;4.18;0.65;;;;;;;14.87;34.79;99787.66;6220303;23;20055;-84
2023/03/15 07:29:40;;;;;;;4.97;0.70;;;;;;;14.96;34.72;99788.25;6246058;23;20008;-86
2023/03/15 07:32:06;;;;;;;1.92;0.63;;;;;;;15.27;34.30;99803.59;6246196;23;20047;-87
2023/03/15 07:34:33;;;;;;;1.90;0.57;;;;;;;15.38;34.10;99803.75;6218935;23;20388;-87
2023/03/15 07:37:00;;;;;;;9.43;0.80;;;;;;;15.62;33.56;99828.16;6246068;23;20316;-87
2023/03/15 07:39:27;;;;;;;5.68;0.45;;;;;;;16.13;32.26;99828.94;6246406;23;20095;-87
2023/03/15 07:41:55;;;;;;;0.95;0.60;;;;;;;16.04;32.79;99831.03;6246879;23;20439;-86
2023/03/15 07:44:29;;;;;;;4.60;0.50;;;;;;;16.17;32.51;99840.84;6219729;23;20443;-89
2023/03/15 07:46:57;;;;;;;4.93;0.70;;;;;;;16.31;32.32;99833.53;6220563;23;20016;-86
2023/03/15 07:49:24;;;;;;;2.67;0.50;;;;;;;16.50;31.40;99840.63;6221246;23;20443;-88
2023/03/15 07:51:50;;;;;;;1.15;0.50;;;;;;;16.79;30.37;99841.88;6249533;23;20459;-87
2023/03/15 07:54:17;;;;;;;1.25;0.43;;;;;;;16.82;30.61;99852.13;6249757;23;20008;-86
2023/03/15 07:56:44;;;;;;;1.25;0.50;;;;;;;17.01;30.31;99846.59;6252482;23;20432;-87
2023/03/15 07:59:10;;;;;;;2.25;0.50;;;;;;;18.20;29.14;99855.97;6252888;23;20004;-87
2023/03/15 08:01:37;;;;;;;0.70;0.50;;;;;;;17.52;29.28;99877.63;6251947;23;20015;-86
2023/03/15 08:04:05;;;;;;;1.98;0.60;;;;;;;17.37;29.75;99869.09;6252847;23;20083;-90
2023/03/15 08:06:31;;;;;;;1.45;0.47;;;;;;;17.20;29.64;99871.53;6254838;23;20027;-87
2023/03/15 08:09:00;;;;;;;1.65;0.43;;;;;;;17.20;28.99;99881.47;6254121;23;20141;-86
2023/03/15 08:11:26;;;;;;;1.83;0.50;;;;;;;17.72;28.13;99888.97;6253916;23;20012;-86
2023/03/15 08:13:53;;;;;;;1.35;0.40;;;;;;;16.88;29.22;99880.69;6259827;23;20489;-85
2023/03/15 08:16:19;;;;;;;4.28;0.60;;;;;;;17.00;29.47;99879.75;6251244;23;20016;-86
2023/03/15 08:18:46;;;;;;;1.40;0.40;;;;;;;17.47;29.11;99885.50;6253760;23;20386;-85
2023/03/15 08:21:12;;;;;;;1.13;0.32;;;;;;;18.15;29.29;99893.41;6224331;23;20490;-85
2023/03/15 08:23:39;;;;;;;2.13;0.60;;;;;;;18.25;29.00;99891.81;6249253;23;20047;-86
2023/03/15 08:26:06;;;;;;;0.88;0.50;;;;;;;18.17;29.10;99892.13;6247504;23;20435;-87
2023/03/15 08:28:32;;;;;;;4.00;0.38;;;;;;;17.55;30.04;99893.25;6246204;23;20039;-86
2023/03/15 08:30:58;;;;;;;3.10;0.90;;;;;;;17.94;29.64;99900.88;6248070;23;20015;-87
2023/03/15 08:33:23;;;;;;;5.25;0.40;;;;;;;18.57;29.77;99900.47;6247237;23;20008;-85
2023/03/15 08:35:52;;;;;;;0.60;0.40;;;;;;;19.40;27.90;99903.88;6246269;23;20080;-84
2023/03/15 08:38:18;;;;;;;1.73;0.57;;;;;;;18.75;27.38;99903.09;6246580;23;20015;-84
2023/03/15 08:40:45;;;;;;;2.03;0.60;;;;;;;18.56;27.31;99913.06;6246505;23;20012;-84
2023/03/15 08:43:11;;;;;;;0.70;0.30;;;;;;;18.25;27.64;99920.50;6244731;23;20016;-85
2023/03/15 08:45:37;;;;;;;3.95;0.28;;;;;;;17.70;28.17;99928.56;6246328;23;20012;-85
2023/03/15 08:48:02;;;;;;;3.13;0.40;;;;;;;18.30;27.71;99934.03;6246104;23;20406;-85
2023/03/15 08:50:30;;;;;;;7.15;0.90;;;;;;;18.67;26.57;99929.44;6245543;23;20343;-85
2023/03/15 08:52:56;;;;;;;3.92;0.50;;;;;;;18.47;26.78;99938.56;6245569;23;20020;-83
2023/03/15 08:55:22;;;;;;;4.30;0.38;;;;;;;19.04;25.94;99945.19;6245666;23;20019;-86
2023/03/15 08:57:48;;;;;;;4.78;0.40;;;;;;;19.01;25.34;99956.38;6246255;23;20008;-84
2023/03/15 09:00:21;;;;;;;2.70;0.38;;;;;;;19.15;25.72;99956.19;6245618;23;20000;-85
2023/03/15 09:02:53;;;;;;;2.92;0.20;;;;;;;19.17;25.98;99954.88;6246007;23;20012;-87
2023/03/15 09:05:20;;;;;;;1.80;0.40;;;;;;;20.42;25.39;99961.47;6219540;23;20439;-86
2023/03/15 09:07:46;;;;;;;3.67;0.50;;;;;;;20.72;24.62;99961.22;6246374;23;20012;-85
2023/03/15 09:10:14;;;;;;;3.25;0.30;;;;;;;21.04;23.21;99965.06;6246711;23;20089;-86
2023/03/15 09:12:48;;;;;;;1.63;0.60;;;;;;;21.56;23.66;99962.13;6247116;23;20374;-85
2023/03/15 09:15:14;;;;;;;1.45;0.30;;;;;;;21.74;21.97;99958.34;6245881;23;20339;-87
2023/03/15 09:17:40;;;;;;;2.17;0.45;;;;;;;21.97;21.61;99974.34;6245932;23;20000;-87
2023/03/15 09:20:13;;;;;;;3.33;0.40;;;;;;;22.55;22.08;99988.00;6246385;23;20012;-86
2023/03/15 09:22:38;;;;;;;;;;;;;;;22.17;22.05;99976.47;6246641;23;20036;-85
2023/03/15 09:25:04;;;;;;;5.15;0.30;;;;;;;22.53;22.77;99994.75;6246159;23;19911;-86
2023/03/15 09:27:30;;;;;;;1.02;0.32;;;;;;;22.03;20.51;99994.91;6246251;23;20012;-88
2023/03/15 09:29:56;;;;;;;4.45;0.43;;;;;;;22.64;20.59;99996.47;6246227;23;20018;-85
2023/03/15 09:32:21;;;;;;;3.17;0.60;;;;;;;22.50;20.04;100008.75;6219291;23;20024;-86
2023/03/15 09:34:48;;;;;;;5.18;0.70;;;;;;;22.19;19.57;100004.84;6246203;23;20012;-87
2023/03/15 09:37:14;;;;;;;4.07;0.50;;;;;;;22.17;20.51;100016.97;6246371;23;20382;-86
2023/03/15 09:39:39;;;;;;;0.90;0.20;;;;;;;21.62;18.74;100025.84;6245923;23;20004;-84
2023/03/15 09:42:16;;;;;;;0.98;0.30;;;;;;;22.11;18.42;100029.56;6245935;23;20013;-86
2023/03/15 09:44:50;;;;;;;2.42;0.30;;;;;;;22.64;18.10;100031.59;6245775;23;20012;-86
2023/03/15 09:47:39;;;;;;;4.68;0.30;;;;;;;22.48;18.46;100018.97;6246024;23;20039;-85
2023/03/15 09:50:11;;;;;;;4.38;0.40;;;;;;;22.72;17.98;100036.59;6246391;23;20011;-87
2023/03/15 09:52:45;;;;;;;2.60;0.30;;;;;;;23.21;17.90;100023.84;6245764;23;20008;-86
2023/03/15 09:55:10;;;;;;;1.88;0.30;;;;;;;22.87;17.56;100034.03;6246664;23;20091;-86
2023/03/15 09:57:49;;;;;;;4.07;0.50;;;;;;;22.67;17.57;100039.22;6219064;23;20008;-86
2023/03/15 10:00:20;;;;;;;1.13;0.40;;;;;;;22.99;18.12;100036.59;6218864;23;20014;-89
2023/03/15 10:02:54;;;;;;;3.15;0.20;;;;;;;23.14;17.37;100037.56;6246337;23;20044;-88
2023/03/15 10:05:27;;;;;;;0.52;0.30;;;;;;;23.96;17.48;100050.69;6245950;23;20008;-88
2023/03/15 10:08:27;;;;;;;3.03;0.25;;;;;;;23.36;17.77;100053.72;6252670;23;20009;-89
2023/03/15 10:11:37;;;;;;;0.68;0.17;;;;;;;23.06;18.92;100050.75;6267243;22;20028;-91
2023/03/15 10:14:08;;;;;;;0.98;0.40;;;;;;;23.84;17.02;100050.06;6221873;23;20386;-87
2023/03/15 10:16:43;;;;;;;1.73;0.38;;;;;;;24.39;18.44;100048.81;6248874;22;20016;-85
2023/03/15 10:19:14;;;;;;;2.15;0.50;;;;;;;24.89;17.77;100051.72;6252252;23;20008;-88
2023/03/15 10:22:03;;;;;;;3.57;0.40;;;;;;;24.47;16.97;100048.28;6248562;23;20004;-87
2023/03/15 10:24:38;;;;;;;3.78;0.40;;;;;;;25.03;17.93;100060.97;6231465;23;20261;-88
2023/03/15 10:27:15;;;;;;;0.47;0.30;;;;;;;25.37;15.27;100071.34;6247610;23;20011;-87
2023/03/15 10:29:42;;;;;;;5.97;0.47;;;;;;;26.01;15.21;100058.88;6218745;23;20012;-85
2023/03/15 10:32:16;;;;;;;1.52;0.28;;;;;;;24.88;14.91;100065.53;6246685;23;20103;-88
2023/03/15 10:34:46;;;;;;;5.63;0.30;;;;;;;25.42;15.99;100061.28;6245568;23;20448;-88
2023/03/15 10:37:11;;;;;;;1.05;0.32;;;;;;;25.51;16.84;100064.31;6219796;23;20387;-83
2023/03/15 10:39:37;;;;;;;1.08;0.30;;;;;;;24.27;15.82;100061.72;6246382;23;20009;-88
2023/03/15 10:42:03;;;;;;;8.30;0.52;;;;;;;24.27;15.65;100065.25;6252075;23;20067;-86
2023/03/15 10:44:30;;;;;;;7.65;0.30;;;;;;;23.73;15.71;100058.38;6222702;23;20004;-81
2023/03/15 10:47:06;;;;;;;1.85;0.30;;;;;;;23.44;15.81;100063.28;6247566;23;20424;-84
2023/03/15 10:49:42;;;;;;;2.00;0.40;;;;;;;22.81;16.04;100062.06;6245889;23;20012;-88
2023/03/15 10:52:36;;;;;;;1.58;0.30;;;;;;;23.57;15.80;100073.66;6245756;23;20004;-85
2023/03/15 10:55:10;;;;;;;5.80;0.40;;;;;;;25.44;14.35;100071.88;6246739;23;20051;-87
2023/03/15 10:57:49;;;;;;;3.08;0.63;;;;;;;26.20;14.74;100084.38;6219104;23;20378;-87
2023/03/15 11:00:32;;;;;;;1.17;0.20;;;;;;;25.43;15.78;100083.81;6245668;23;20012;-86
2023/03/15 11:03:06;;;;;;;0.43;0.30;;;;;;;25.53;13.98;100083.84;6219297;23;20035;-86
2023/03/15 11:05:46;;;;;;;1.10;0.38;;;;;;;25.94;16.64;100077.34;6246309;23;20036;-88
2023/03/15 11:08:15;;;;;;;1.27;0.20;;;;;;;26.37;14.40;100088.69;6244458;23;20469;-87
2023/03/15 11:10:43;;;;;;;4.68;0.30;;;;;;;26.36;13.57;100098.72;6245605;23;20012;-85
2023/03/15 11:13:22;;;;;;;1.05;0.40;;;;;;;26.61;12.68;100108.72;6246178;23;20000;-88
2023/03/15 11:16:04;;;;;;;0.68;0.30;;;;;;;26.34;15.63;100094.66;6245696;23;20069;-85
2023/03/15 11:18:38;;;;;;;2.25;0.40;;;;;;;27.70;12.46;100091.25;6218965;23;20364;-88
2023/03/15 11:21:08;;;;;;;1.75;0.40;;;;;;;25.46;12.97;100102.25;6219231;23;20356;-84
2023/03/15 11:23:37;;;;;;;6.03;0.57;;;;;;;23.45;16.19;100095.50;6221199;23;20023;-86
2023/03/15 11:42:26;;;;;;;10.27;6.68;;;;;;;27.37;10.10;100121.97;6250648;22;20012;-90
2023/03/15 11:44:57;;;;;;;4.15;0.60;;;;;;;26.85;10.64;100115.16;6213320;23;20087;-89
2023/03/15 11:47:37;;;;;;;2.72;0.50;;;;;;;26.92;10.61;100106.69;6188539;23;20011;-90
2023/03/15 11:50:09;;;;;;;0.77;0.30;;;;;;;27.70;10.34;100099.44;6208159;23;20641;-93
2023/03/15 11:52:35;;;;;;;3.95;0.40;;;;;;;28.40;9.27;100105.31;6257606;23;20012;-89
2023/03/15 11:55:02;;;;;;;0.88;0.25;;;;;;;28.77;9.29;100099.97;6253939;23;20345;-88
2023/03/15 11:57:28;;;;;;;1.17;0.30;;;;;;;29.69;9.71;100100.31;6256807;23;20012;-88
2023/03/15 12:00:40;;;;;;;0.40;0.20;;;;;;;28.59;10.57;100092.56;6232520;23;20031;-88
2023/03/15 12:03:41;;;;;;;0.20;0.20;;;;;;;28.84;9.95;100073.16;6253522;23;20015;-85
2023/03/15 12:06:13;;;;;;;3.40;0.40;;;;;;;29.49;10.29;100074.16;6188180;23;20051;-89
2023/03/15 12:08:38;;;;;;;0.40;0.20;;;;;;;29.12;9.81;100074.97;6226192;23;20008;-84
2023/03/15 12:11:32;;;;;;;1.80;0.30;;;;;;;27.86;10.72;100062.78;6249219;23;20014;-86